Terminal Aerodrome Forecast
Issued by NWS

Home | Current Version | Previous Version | Text Only | Print | Product List | Glossary On
Versions: 1 2 3 4 5 6 7 8 9 10 11 12 13 14 15 16 17 18 19 20
000
FTUS41 KGYX 261120
TAFRKD
TAF
KRKD 261120Z 2612/2712 22008KT P6SM FEW040 BKN100
     FM261300 23012G20KT P6SM BKN120
     FM270100 24007KT P6SM SCT200
     FM270600 23005KT 4SM BR BKN012
      AMD LTD TO CLD VIS AND WIND=

USA.gov is the U.S. government's official web portal to all federal, state and local government web resources and services.